Time;durP1;ratioP1;P1;durP2;ratioP2;P2;SDS_P1;SDS_P2;PMS_P1;PMS_P2;Temp;Humidity;BMP_temperature;BMP_pressure;BME280_temperature;BME280_humidity;BME280_pressure;Samples;Min_cycle;Max_cycle;Signal;HPM_P1;HPM_P2
2022/04/16 00:00:58;;;;;;;1.17;1.03;;;14.10;99.90;;;;;;7388192;19;20658;-80
2022/04/16 00:03:25;;;;;;;1.77;1.17;;;14.10;99.90;;;;;;7389587;19;20150;-80
2022/04/16 00:05:55;;;;;;;1.27;1.17;;;14.10;99.90;;;;;;7387097;19;20151;-80
2022/04/16 00:08:25;;;;;;;2.07;1.43;;;14.00;99.90;;;;;;7388426;19;20127;-80
2022/04/16 00:10:52;;;;;;;1.87;1.20;;;14.00;99.90;;;;;;7387766;19;20137;-78
2022/04/16 00:13:19;;;;;;;1.70;1.33;;;14.00;99.90;;;;;;7391030;19;20563;-80
2022/04/16 00:15:46;;;;;;;1.97;1.23;;;14.00;99.90;;;;;;7383551;19;20134;-78
2022/04/16 00:18:13;;;;;;;1.13;1.02;;;14.10;99.90;;;;;;7390487;19;20491;-80
2022/04/16 00:20:40;;;;;;;1.27;1.17;;;14.10;99.90;;;;;;7390674;19;20619;-78
2022/04/16 00:23:07;;;;;;;1.27;1.17;;;13.90;99.90;;;;;;7390119;19;20226;-81
2022/04/16 00:25:34;;;;;;;1.30;1.03;;;13.90;99.90;;;;;;7386369;19;20138;-78
2022/04/16 00:28:06;;;;;;;1.10;1.00;;;13.80;99.90;;;;;;7384245;19;20146;-80
2022/04/16 00:30:37;;;;;;;1.17;0.93;;;13.70;99.90;;;;;;7385080;19;20151;-79
2022/04/16 00:33:05;;;;;;;1.10;1.00;;;13.70;99.90;;;;;;7393017;19;20135;-77
2022/04/16 00:35:30;;;;;;;2.50;0.90;;;13.70;99.90;;;;;;7388785;19;20133;-78
2022/04/16 00:37:56;;;;;;;1.13;1.00;;;13.70;99.90;;;;;;7387244;19;20146;-77
2022/04/16 00:40:22;;;;;;;0.90;0.90;;;13.80;99.90;;;;;;7388219;19;20155;-81
2022/04/16 00:42:50;;;;;;;1.13;1.00;;;13.70;99.90;;;;;;7389294;19;20504;-79
2022/04/16 00:45:16;;;;;;;1.13;1.03;;;13.70;99.90;;;;;;7392843;19;20990;-79
2022/04/16 00:47:42;;;;;;;1.10;1.00;;;13.60;99.90;;;;;;7391147;19;20166;-79
2022/04/16 00:50:09;;;;;;;1.57;1.27;;;13.60;99.90;;;;;;7395309;19;20138;-77
2022/04/16 00:52:36;;;;;;;0.90;0.90;;;13.60;99.90;;;;;;7395817;19;20541;-78
2022/04/16 00:55:02;;;;;;;1.30;1.20;;;13.50;99.90;;;;;;7392259;19;20150;-80
2022/04/16 00:57:28;;;;;;;1.50;1.10;;;13.60;99.90;;;;;;7393678;19;20210;-80
2022/04/16 00:59:54;;;;;;;1.57;1.10;;;13.60;99.90;;;;;;7399427;19;20131;-78
2022/04/16 01:02:21;;;;;;;1.10;1.00;;;13.60;99.90;;;;;;7394198;19;20135;-80
2022/04/16 01:04:48;;;;;;;1.10;1.00;;;13.50;99.90;;;;;;7392216;19;20158;-77
2022/04/16 01:07:20;;;;;;;2.60;1.37;;;13.40;99.90;;;;;;7390943;19;20685;-77
2022/04/16 01:09:46;;;;;;;1.20;1.00;;;13.30;99.90;;;;;;7394642;19;20150;-77
2022/04/16 01:12:12;;;;;;;1.10;1.00;;;13.20;99.90;;;;;;7392580;19;20138;-77
2022/04/16 01:14:38;;;;;;;1.23;1.13;;;13.20;99.90;;;;;;7392612;19;20151;-76
2022/04/16 01:17:04;;;;;;;1.10;1.00;;;13.20;99.90;;;;;;7393290;19;20142;-76
2022/04/16 01:19:30;;;;;;;1.30;1.20;;;13.20;99.90;;;;;;7393800;19;20219;-76
2022/04/16 01:21:56;;;;;;;1.23;1.03;;;13.20;99.90;;;;;;7392543;19;20241;-77
2022/04/16 01:24:22;;;;;;;1.10;1.00;;;13.30;99.90;;;;;;7393280;19;20130;-78
2022/04/16 01:26:51;;;;;;;0.70;0.70;;;13.50;99.90;;;;;;7391761;19;20142;-78
2022/04/16 01:29:20;;;;;;;2.10;1.00;;;13.50;99.90;;;;;;7393220;19;20188;-77
2022/04/16 01:31:46;;;;;;;1.33;0.90;;;13.30;99.90;;;;;;7393825;19;20201;-77
2022/04/16 01:34:14;;;;;;;1.17;1.03;;;13.50;99.90;;;;;;7389509;19;20138;-79
2022/04/16 01:36:40;;;;;;;1.20;1.07;;;13.50;99.90;;;;;;7393324;19;20135;-77
2022/04/16 01:39:07;;;;;;;1.03;0.93;;;13.40;99.90;;;;;;7397055;19;20146;-76
2022/04/16 01:41:33;;;;;;;1.33;0.93;;;13.30;99.90;;;;;;7390288;19;20163;-80
2022/04/16 01:43:58;;;;;;;0.93;0.90;;;13.30;99.90;;;;;;7394064;19;20166;-77
2022/04/16 01:46:24;;;;;;;0.80;0.80;;;13.30;99.90;;;;;;7391025;19;20125;-77
2022/04/16 01:48:53;;;;;;;2.27;1.37;;;13.30;99.90;;;;;;7390504;19;20214;-77
2022/04/16 01:51:22;;;;;;;1.20;1.10;;;13.30;99.90;;;;;;7390498;19;20488;-77
2022/04/16 01:53:51;;;;;;;1.10;1.00;;;13.30;99.90;;;;;;7387301;19;20138;-80
2022/04/16 01:56:17;;;;;;;1.10;1.00;;;13.30;99.90;;;;;;7388743;19;20776;-77
2022/04/16 01:58:44;;;;;;;1.30;1.20;;;13.30;99.90;;;;;;7390809;19;20151;-77
2022/04/16 02:01:10;;;;;;;1.57;1.13;;;13.20;99.90;;;;;;7398662;19;20609;-77
2022/04/16 02:03:37;;;;;;;1.50;1.10;;;13.30;99.90;;;;;;7392018;19;20134;-77
2022/04/16 02:06:05;;;;;;;1.53;1.10;;;13.30;99.90;;;;;;7389408;19;20135;-76
2022/04/16 02:08:31;;;;;;;1.20;1.10;;;13.30;99.90;;;;;;7392202;19;20145;-76
2022/04/16 02:10:57;;;;;;;1.43;1.23;;;13.30;99.90;;;;;;7390947;19;20607;-77
2022/04/16 02:13:23;;;;;;;1.20;1.00;;;13.30;99.90;;;;;;7389147;19;20489;-81
2022/04/16 02:15:49;;;;;;;1.20;1.10;;;13.10;99.90;;;;;;7386317;19;20158;-79
2022/04/16 02:18:15;;;;;;;1.10;0.90;;;13.10;99.90;;;;;;7389804;19;20130;-77
2022/04/16 02:20:43;;;;;;;1.13;1.03;;;13.00;99.90;;;;;;7388619;19;20160;-77
2022/04/16 02:23:10;;;;;;;1.53;1.10;;;13.00;99.90;;;;;;7394667;19;20173;-79
2022/04/16 02:25:36;;;;;;;1.10;0.97;;;13.00;99.90;;;;;;7398636;19;20558;-78
2022/04/16 02:28:02;;;;;;;1.93;1.20;;;13.00;99.90;;;;;;7387888;19;20166;-79
2022/04/16 02:30:30;;;;;;;1.67;1.40;;;13.10;99.90;;;;;;7388007;19;20127;-81
2022/04/16 02:32:56;;;;;;;1.43;1.17;;;13.10;99.90;;;;;;7389810;19;20507;-77
2022/04/16 02:35:23;;;;;;;1.67;0.97;;;13.10;99.90;;;;;;7388500;19;20126;-80
2022/04/16 02:37:49;;;;;;;1.83;1.30;;;13.00;99.90;;;;;;7389422;19;20134;-76
2022/04/16 02:40:15;;;;;;;2.50;1.50;;;12.90;99.90;;;;;;7388140;19;20178;-80
2022/04/16 02:42:44;;;;;;;1.10;1.00;;;12.80;99.90;;;;;;7389419;19;20193;-78
2022/04/16 02:47:58;;;;;;;1.13;1.03;;;12.40;99.90;;;;;;7394332;19;20127;-80
2022/04/16 02:50:25;;;;;;;2.50;1.40;;;12.30;99.90;;;;;;7390252;19;20564;-79
2022/04/16 02:52:51;;;;;;;1.67;1.27;;;12.20;99.90;;;;;;7389542;19;20145;-77
2022/04/16 02:55:17;;;;;;;2.03;1.33;;;12.30;99.90;;;;;;7389258;19;20147;-78
2022/04/16 02:57:44;;;;;;;2.63;1.17;;;12.20;99.90;;;;;;7386148;19;20126;-77
2022/04/16 03:00:13;;;;;;;1.77;1.37;;;12.20;99.90;;;;;;7386774;19;20149;-77
2022/04/16 03:02:39;;;;;;;1.33;1.20;;;12.40;99.90;;;;;;7390387;19;20145;-79
2022/04/16 03:05:08;;;;;;;1.40;1.13;;;12.40;99.90;;;;;;7387889;19;20465;-80
2022/04/16 03:07:36;;;;;;;1.73;1.10;;;12.00;99.90;;;;;;7390086;19;20172;-80
2022/04/16 03:10:03;;;;;;;2.43;1.27;;;12.10;99.90;;;;;;7394861;19;20147;-78
2022/04/16 03:12:40;;;;;;;1.40;1.20;;;12.20;99.90;;;;;;7387175;19;20166;-81
2022/04/16 03:17:53;;;;;;;2.47;1.47;;;12.00;99.90;;;;;;7391706;19;20199;-79
2022/04/16 03:20:20;;;;;;;1.37;1.10;;;12.10;99.90;;;;;;7387605;19;20159;-77
2022/04/16 03:22:46;;;;;;;1.53;1.13;;;12.20;99.90;;;;;;7387682;19;20223;-80
2022/04/16 03:25:11;;;;;;;1.23;1.13;;;12.30;99.90;;;;;;7389788;19;20150;-79
2022/04/16 03:27:37;;;;;;;1.53;1.20;;;12.30;99.90;;;;;;7386915;19;20252;-77
2022/04/16 03:30:07;;;;;;;1.70;1.37;;;12.40;99.90;;;;;;7386440;19;20138;-77
2022/04/16 03:32:40;;;;;;;1.30;1.20;;;12.20;99.90;;;;;;7394644;19;20612;-82
2022/04/16 03:35:08;;;;;;;1.43;1.33;;;11.90;99.90;;;;;;7388188;19;20136;-76
2022/04/16 03:37:35;;;;;;;1.13;1.03;;;12.10;99.90;;;;;;7389525;19;20162;-80
2022/04/16 03:40:01;;;;;;;1.73;1.17;;;12.20;99.90;;;;;;7388299;19;20123;-79
2022/04/16 03:42:26;;;;;;;1.80;1.10;;;12.20;99.90;;;;;;7387946;19;20174;-78
2022/04/16 03:44:52;;;;;;;1.60;1.37;;;12.40;99.90;;;;;;7388677;19;20626;-78
2022/04/16 03:47:18;;;;;;;2.17;1.40;;;12.40;99.90;;;;;;7384422;19;20601;-79
2022/04/16 03:49:44;;;;;;;1.30;1.20;;;12.40;99.90;;;;;;7386401;19;20128;-82
2022/04/16 03:52:09;;;;;;;1.20;1.10;;;12.40;99.90;;;;;;7385726;19;20493;-80
2022/04/16 04:00:06;;;;;;;1.43;1.30;;;12.10;99.90;;;;;;7386667;19;20497;-80
2022/04/16 04:02:38;;;;;;;1.90;1.70;;;12.00;99.90;;;;;;7386790;19;20174;-80
2022/04/16 04:05:04;;;;;;;1.63;1.27;;;12.10;99.90;;;;;;7386946;19;20888;-77
2022/04/16 04:07:30;;;;;;;1.93;1.33;;;11.60;99.90;;;;;;7386296;19;20139;-81
2022/04/16 04:09:57;;;;;;;1.90;1.50;;;11.60;99.90;;;;;;7387244;19;20427;-78
2022/04/16 04:12:22;;;;;;;1.67;1.30;;;11.90;99.90;;;;;;7387001;19;20752;-80
2022/04/16 04:14:48;;;;;;;1.77;1.53;;;12.00;99.90;;;;;;7387494;19;20143;-78
2022/04/16 04:17:15;;;;;;;1.50;1.30;;;12.20;99.90;;;;;;7386210;19;20294;-78
2022/04/16 04:19:45;;;;;;;2.20;1.70;;;12.20;99.90;;;;;;7389430;19;20162;-78
2022/04/16 04:22:14;;;;;;;2.13;1.60;;;12.20;99.90;;;;;;7394484;19;20142;-77
2022/04/16 04:24:41;;;;;;;1.87;1.47;;;12.20;99.90;;;;;;7395268;19;20138;-78
2022/04/16 04:27:07;;;;;;;3.77;1.20;;;11.90;99.90;;;;;;7396207;19;20134;-80
2022/04/16 04:29:34;;;;;;;1.43;1.23;;;11.70;99.90;;;;;;7389613;19;20206;-81
2022/04/16 04:32:00;;;;;;;1.80;1.30;;;11.80;99.90;;;;;;7393279;19;20138;-79
2022/04/16 04:34:26;;;;;;;1.50;1.40;;;11.90;99.90;;;;;;7393158;19;20122;-79
2022/04/16 04:36:52;;;;;;;1.40;1.20;;;12.00;99.90;;;;;;7394882;19;20123;-80
2022/04/16 04:39:18;;;;;;;2.33;1.70;;;11.90;99.90;;;;;;7392349;19;20495;-80
2022/04/16 04:41:45;;;;;;;2.07;1.43;;;11.90;99.90;;;;;;7392855;19;20174;-80
2022/04/16 04:44:15;;;;;;;2.47;1.50;;;11.90;99.90;;;;;;7391523;19;20127;-80
2022/04/16 04:46:42;;;;;;;1.77;1.50;;;12.10;99.90;;;;;;7390542;19;20138;-78
2022/04/16 04:49:08;;;;;;;1.77;1.53;;;12.00;99.90;;;;;;7393112;19;20134;-80
2022/04/16 04:51:41;;;;;;;2.17;1.67;;;11.90;99.90;;;;;;7394820;19;20183;-80
2022/04/16 04:54:08;;;;;;;2.90;1.63;;;11.90;99.90;;;;;;7399443;19;20142;-81
2022/04/16 04:56:37;;;;;;;2.40;1.70;;;11.90;99.90;;;;;;7390907;19;20127;-80
2022/04/16 04:59:03;;;;;;;1.60;1.50;;;11.90;99.90;;;;;;7392274;19;20134;-79
2022/04/16 05:01:29;;;;;;;2.27;1.40;;;12.10;99.90;;;;;;7393043;19;20522;-79
2022/04/16 05:03:55;;;;;;;2.73;1.67;;;12.00;99.90;;;;;;7392462;19;20135;-78
2022/04/16 05:06:20;;;;;;;1.60;1.50;;;12.00;99.90;;;;;;7389922;19;20521;-78
2022/04/16 05:08:46;;;;;;;2.87;2.17;;;12.00;99.90;;;;;;7392301;19;20266;-77
2022/04/16 05:11:12;;;;;;;2.23;1.47;;;12.00;99.90;;;;;;7398110;19;20141;-81
2022/04/16 05:13:39;;;;;;;1.87;1.40;;;12.00;99.90;;;;;;7401185;19;20138;-77
2022/04/16 05:16:05;;;;;;;1.83;1.57;;;12.00;99.90;;;;;;7392089;19;20134;-78
2022/04/16 05:18:31;;;;;;;1.53;1.43;;;12.00;99.90;;;;;;7394143;19;20138;-81
2022/04/16 05:20:56;;;;;;;3.70;1.80;;;12.10;99.90;;;;;;7392867;19;20143;-77
2022/04/16 05:23:23;;;;;;;2.90;1.50;;;12.10;99.90;;;;;;7395584;19;20154;-77
2022/04/16 05:25:49;;;;;;;2.40;1.63;;;12.10;99.90;;;;;;7393051;19;20157;-80
2022/04/16 05:28:14;;;;;;;2.60;2.03;;;12.00;99.90;;;;;;7391409;19;20170;-81
2022/04/16 05:30:48;;;;;;;1.73;1.47;;;11.90;99.90;;;;;;7390389;19;20143;-77
2022/04/16 05:36:05;;;;;;;1.87;1.60;;;11.80;99.90;;;;;;7398671;19;20131;-77
2022/04/16 05:38:31;;;;;;;2.10;1.90;;;11.90;99.90;;;;;;7394216;19;20402;-80
2022/04/16 05:40:58;;;;;;;1.80;1.50;;;12.00;99.90;;;;;;7395043;19;20180;-77
2022/04/16 05:43:24;;;;;;;2.17;1.73;;;11.90;99.90;;;;;;7396909;19;20126;-82
2022/04/16 05:45:50;;;;;;;1.77;1.50;;;11.90;99.90;;;;;;7395528;19;21632;-77
2022/04/16 05:48:15;;;;;;;1.67;1.50;;;12.00;99.90;;;;;;7393646;19;20155;-80
2022/04/16 05:50:41;;;;;;;2.37;1.77;;;12.00;99.90;;;;;;7398185;19;20697;-81
2022/04/16 05:53:10;;;;;;;1.77;1.60;;;12.00;99.90;;;;;;7392235;19;20153;-77
2022/04/16 05:55:39;;;;;;;2.20;1.80;;;12.00;99.90;;;;;;7390871;19;20154;-78
2022/04/16 05:58:05;;;;;;;2.43;1.80;;;12.00;99.90;;;;;;7393723;19;20646;-77
2022/04/16 06:00:33;;;;;;;2.30;1.80;;;12.00;99.90;;;;;;7400800;19;20143;-78
2022/04/16 06:02:59;;;;;;;1.73;1.60;;;12.00;99.90;;;;;;7392874;19;20141;-77
2022/04/16 06:05:25;;;;;;;1.67;1.50;;;12.00;99.90;;;;;;7393909;19;20211;-77
2022/04/16 06:07:51;;;;;;;2.83;1.63;;;12.10;99.90;;;;;;7392706;19;20158;-79
2022/04/16 06:10:16;;;;;;;2.40;1.87;;;12.10;99.90;;;;;;7393462;19;20418;-79
2022/04/16 06:12:42;;;;;;;2.30;1.73;;;12.10;99.90;;;;;;7392919;19;20149;-77
2022/04/16 06:15:09;;;;;;;1.50;1.40;;;12.10;99.90;;;;;;7394830;19;20142;-80
2022/04/16 06:17:35;;;;;;;3.30;1.83;;;12.10;99.90;;;;;;7400006;19;20146;-78
2022/04/16 06:20:03;;;;;;;2.80;1.60;;;12.10;99.90;;;;;;7406172;19;20214;-77
2022/04/16 06:22:30;;;;;;;1.70;1.50;;;12.10;99.90;;;;;;7395736;19;20175;-78
2022/04/16 06:24:56;;;;;;;1.93;1.73;;;12.00;99.90;;;;;;7394525;19;20623;-80
2022/04/16 06:27:22;;;;;;;2.43;1.70;;;12.00;99.90;;;;;;7395984;19;20138;-76
2022/04/16 06:29:48;;;;;;;1.73;1.60;;;11.90;99.90;;;;;;7391276;19;20149;-78
2022/04/16 06:32:14;;;;;;;2.03;1.77;;;11.90;99.90;;;;;;7395369;19;20206;-80
2022/04/16 06:34:40;;;;;;;2.47;1.73;;;11.90;99.90;;;;;;7393596;19;20255;-81
2022/04/16 06:37:09;;;;;;;2.57;1.60;;;11.90;99.90;;;;;;7392525;19;20295;-77
2022/04/16 06:39:34;;;;;;;2.33;1.63;;;12.00;99.90;;;;;;7393223;19;20154;-77
2022/04/16 06:42:00;;;;;;;1.90;1.50;;;12.10;99.90;;;;;;7396924;19;20174;-79
2022/04/16 06:44:26;;;;;;;2.53;1.87;;;12.10;99.90;;;;;;7388972;19;20153;-78
2022/04/16 06:46:54;;;;;;;3.50;2.20;;;12.00;99.90;;;;;;7388657;19;20136;-79
2022/04/16 06:49:21;;;;;;;2.40;1.93;;;12.10;99.90;;;;;;7391578;19;20158;-81
2022/04/16 06:51:47;;;;;;;2.40;2.07;;;12.20;99.90;;;;;;7391882;19;20151;-82
2022/04/16 06:54:12;;;;;;;2.87;2.00;;;11.80;99.90;;;;;;7396894;19;20130;-80
2022/04/16 06:56:38;;;;;;;2.60;2.03;;;12.10;99.90;;;;;;7388148;19;20127;-79
2022/04/16 06:59:04;;;;;;;2.27;1.90;;;12.30;99.90;;;;;;7389756;19;20134;-81
2022/04/16 07:01:30;;;;;;;2.20;2.00;;;12.30;99.90;;;;;;7389430;19;20153;-79
2022/04/16 07:03:56;;;;;;;3.47;2.30;;;12.40;99.90;;;;;;7392701;19;20508;-78
2022/04/16 07:06:22;;;;;;;3.30;2.17;;;12.20;99.90;;;;;;7389678;19;20161;-79
2022/04/16 07:08:48;;;;;;;3.30;2.13;;;12.30;99.90;;;;;;7387849;19;21082;-77
2022/04/16 07:11:13;;;;;;;2.30;2.10;;;12.40;99.90;;;;;;7385076;19;20590;-73
2022/04/16 07:13:39;;;;;;;2.80;1.93;;;12.40;99.90;;;;;;7387780;19;20135;-78
2022/04/16 07:16:05;;;;;;;2.40;2.10;;;12.40;99.90;;;;;;7387868;19;20222;-78
2022/04/16 07:18:31;;;;;;;2.20;2.00;;;12.40;99.90;;;;;;7384163;19;20222;-77
2022/04/16 07:20:58;;;;;;;3.03;2.17;;;12.30;99.90;;;;;;7392899;19;20234;-81
2022/04/16 07:23:24;;;;;;;2.73;1.80;;;12.40;99.90;;;;;;7385164;19;20473;-77
2022/04/16 07:25:50;;;;;;;2.53;1.90;;;12.40;99.90;;;;;;7383621;19;20131;-74
2022/04/16 07:28:21;;;;;;;3.70;2.43;;;12.50;99.90;;;;;;7387579;19;20163;-74
2022/04/16 07:30:51;;;;;;;2.63;2.03;;;12.50;99.90;;;;;;7385512;19;20166;-78
2022/04/16 07:33:17;;;;;;;2.67;1.83;;;12.60;99.90;;;;;;7380227;19;20138;-73
2022/04/16 07:35:44;;;;;;;3.10;2.30;;;12.60;99.90;;;;;;7386259;19;20151;-76
2022/04/16 07:38:09;;;;;;;3.07;2.00;;;12.60;99.90;;;;;;7383057;19;20150;-73
2022/04/16 07:40:35;;;;;;;3.17;2.23;;;12.60;99.90;;;;;;7389346;19;20514;-72
2022/04/16 07:43:01;;;;;;;2.90;2.37;;;12.60;99.90;;;;;;7392182;19;20142;-77
2022/04/16 07:45:29;;;;;;;2.10;1.90;;;12.60;99.90;;;;;;7388322;19;20476;-73
2022/04/16 07:47:56;;;;;;;2.47;1.97;;;12.70;99.90;;;;;;7388731;19;20136;-75
2022/04/16 07:50:21;;;;;;;3.20;2.30;;;12.70;99.90;;;;;;7386470;19;20130;-79
2022/04/16 07:52:48;;;;;;;5.00;2.43;;;12.80;99.90;;;;;;7387125;19;20135;-78
2022/04/16 07:55:14;;;;;;;3.43;2.30;;;12.90;99.90;;;;;;7384389;19;20641;-76
2022/04/16 07:57:40;;;;;;;3.80;2.90;;;12.90;99.90;;;;;;7386192;19;20162;-79
2022/04/16 08:00:08;;;;;;;3.00;2.30;;;12.80;99.90;;;;;;7384200;19;20458;-78
2022/04/16 08:02:34;;;;;;;4.50;2.30;;;12.80;99.90;;;;;;7387302;19;20210;-76
2022/04/16 08:05:00;;;;;;;4.87;3.40;;;12.70;99.90;;;;;;7388261;19;20164;-74
2022/04/16 08:07:26;;;;;;;3.22;2.53;;;12.80;99.90;;;;;;7385555;19;20138;-77
2022/04/16 08:09:52;;;;;;;6.03;2.87;;;12.90;99.90;;;;;;7386389;19;20131;-72
2022/04/16 08:12:18;;;;;;;3.00;2.40;;;13.00;99.90;;;;;;7385221;19;20150;-78
2022/04/16 08:14:43;;;;;;;3.87;2.60;;;13.10;99.90;;;;;;7387023;19;20142;-76
2022/04/16 08:17:09;;;;;;;3.93;2.73;;;13.10;99.90;;;;;;7385000;19;20583;-77
2022/04/16 08:19:35;;;;;;;3.53;3.17;;;13.10;99.90;;;;;;7385372;19;20138;-73
2022/04/16 08:22:06;;;;;;;3.30;2.70;;;13.30;99.90;;;;;;7385919;19;20502;-78
2022/04/16 08:24:41;;;;;;;3.80;2.90;;;13.20;99.90;;;;;;7391688;19;20138;-72
2022/04/16 08:27:07;;;;;;;4.33;3.33;;;13.30;99.90;;;;;;7388687;19;20207;-74
2022/04/16 08:29:34;;;;;;;9.33;3.07;;;13.30;99.90;;;;;;7382911;19;20174;-74
2022/04/16 08:31:59;;;;;;;5.90;2.97;;;13.20;99.90;;;;;;7386985;19;20214;-72
2022/04/16 08:34:25;;;;;;;4.10;2.67;;;13.20;99.90;;;;;;7385337;19;20164;-81
2022/04/16 08:36:51;;;;;;;3.88;3.40;;;13.40;99.90;;;;;;7385601;19;20914;-78
2022/04/16 08:39:17;;;;;;;7.10;3.80;;;13.30;99.90;;;;;;7392646;19;20142;-78
2022/04/16 08:41:43;;;;;;;9.93;3.77;;;13.20;99.90;;;;;;7389296;19;20669;-78
2022/04/16 08:44:14;;;;;;;13.23;3.63;;;13.20;99.90;;;;;;7387180;19;20577;-80
2022/04/16 08:46:39;;;;;;;4.37;3.10;;;13.40;99.90;;;;;;7389816;19;20231;-81
2022/04/16 08:49:06;;;;;;;44.93;5.97;;;13.40;99.90;;;;;;7390425;19;20131;-79
2022/04/16 08:51:32;;;;;;;6.30;3.30;;;13.40;99.90;;;;;;7390374;19;20143;-80
2022/04/16 08:53:59;;;;;;;5.97;4.07;;;13.60;99.90;;;;;;7387170;19;20139;-82
2022/04/16 08:56:28;;;;;;;5.80;3.83;;;13.70;99.90;;;;;;7387582;19;20137;-81
2022/04/16 08:58:53;;;;;;;6.73;3.90;;;13.60;99.90;;;;;;7388532;19;20143;-80
2022/04/16 09:01:21;;;;;;;4.15;2.92;;;13.70;99.90;;;;;;7389729;19;20146;-81
2022/04/16 09:03:49;;;;;;;5.60;3.70;;;13.60;99.90;;;;;;7394681;19;20131;-79
2022/04/16 09:06:23;;;;;;;4.60;3.60;;;13.50;99.90;;;;;;7395863;19;20822;-81
2022/04/16 09:08:49;;;;;;;5.43;3.63;;;13.40;99.90;;;;;;7399078;19;20154;-83
2022/04/16 09:11:20;;;;;;;5.73;3.43;;;13.40;99.90;;;;;;7401571;19;20244;-81
2022/04/16 09:13:49;;;;;;;5.32;3.67;;;13.40;99.90;;;;;;7400541;19;20498;-83
2022/04/16 09:16:16;;;;;;;4.73;3.67;;;13.40;99.90;;;;;;7392358;19;20178;-79
2022/04/16 09:18:54;;;;;;;5.70;4.40;;;13.20;99.90;;;;;;7394039;19;20194;-77
2022/04/16 09:21:26;;;;;;;5.53;3.80;;;13.10;99.90;;;;;;7395238;19;20146;-78
2022/04/16 09:23:58;;;;;;;5.63;4.37;;;13.00;99.90;;;;;;7394070;19;20143;-78
2022/04/16 09:26:35;;;;;;;5.13;3.90;;;13.00;99.90;;;;;;7394211;19;20146;-78
2022/04/16 09:29:10;;;;;;;5.43;4.00;;;13.10;99.90;;;;;;7395451;19;20574;-79
2022/04/16 09:31:41;;;;;;;6.43;4.30;;;13.00;99.90;;;;;;7396449;19;20464;-78
2022/04/16 09:34:15;;;;;;;5.83;4.10;;;13.00;99.90;;;;;;7393732;19;20143;-79
2022/04/16 09:36:43;;;;;;;4.88;3.80;;;13.10;99.90;;;;;;7396656;19;20138;-75
2022/04/16 09:39:13;;;;;;;5.30;4.23;;;13.20;99.90;;;;;;7397724;19;20127;-77
2022/04/16 09:41:41;;;;;;;4.93;3.87;;;13.20;99.90;;;;;;7392290;19;20158;-77
2022/04/16 09:44:21;;;;;;;5.37;4.00;;;13.20;99.90;;;;;;7393493;19;20467;-78
2022/04/16 09:46:49;;;;;;;5.97;4.27;;;13.20;99.90;;;;;;7392142;19;20510;-77
2022/04/16 09:49:16;;;;;;;4.43;3.40;;;13.20;99.90;;;;;;7391680;19;20145;-78
2022/04/16 09:51:44;;;;;;;5.87;3.50;;;13.20;99.90;;;;;;7392413;19;20506;-78
2022/04/16 09:54:13;;;;;;;4.13;3.30;;;13.20;99.90;;;;;;7393124;19;20164;-79
2022/04/16 09:56:41;;;;;;;4.77;3.70;;;13.40;99.90;;;;;;7392040;19;20208;-78
2022/04/16 09:59:09;;;;;;;5.10;3.60;;;13.30;99.90;;;;;;7396027;19;20162;-79
2022/04/16 10:01:39;;;;;;;4.53;3.57;;;13.20;99.90;;;;;;7402111;19;20153;-79
2022/04/16 10:04:08;;;;;;;4.60;3.53;;;13.20;99.90;;;;;;7394415;19;20229;-80
2022/04/16 10:06:34;;;;;;;5.50;3.60;;;13.40;99.90;;;;;;7395196;19;20272;-79
2022/04/16 10:09:13;;;;;;;3.97;3.27;;;13.50;99.90;;;;;;7394192;19;20606;-78
2022/04/16 10:14:50;;;;;;;3.70;3.10;;;14.00;99.90;;;;;;7393480;19;20137;-78
2022/04/16 10:17:42;;;;;;;5.67;4.00;;;14.20;99.90;;;;;;7389628;19;20139;-79
2022/04/16 10:20:14;;;;;;;5.07;3.07;;;14.20;99.90;;;;;;7396177;19;21021;-77
2022/04/16 10:22:40;;;;;;;5.07;3.00;;;14.20;99.90;;;;;;7396135;19;20154;-78
2022/04/16 10:25:06;;;;;;;4.30;3.40;;;14.10;99.90;;;;;;7400761;19;20190;-80
2022/04/16 10:27:40;;;;;;;6.27;4.20;;;14.20;99.90;;;;;;7392175;19;20597;-78
2022/04/16 10:30:11;;;;;;;4.83;3.63;;;14.00;99.90;;;;;;7391469;19;20174;-78
2022/04/16 10:32:43;;;;;;;5.93;3.90;;;14.00;99.90;;;;;;7391743;19;20492;-76
2022/04/16 10:35:17;;;;;;;4.18;3.30;;;14.00;99.90;;;;;;7390811;19;20146;-77
2022/04/16 10:37:48;;;;;;;4.70;3.43;;;14.00;99.90;;;;;;7391500;19;20669;-78
2022/04/16 10:40:23;;;;;;;5.10;3.50;;;14.00;99.90;;;;;;7394052;19;20146;-77
2022/04/16 10:42:58;;;;;;;4.70;3.47;;;14.00;99.90;;;;;;7393574;19;20163;-78
2022/04/16 10:45:24;;;;;;;6.53;3.43;;;14.00;99.90;;;;;;7396298;19;20134;-78
2022/04/16 10:47:51;;;;;;;4.70;3.47;;;14.00;99.90;;;;;;7395560;19;20237;-76
2022/04/16 10:50:20;;;;;;;4.07;3.20;;;14.10;99.90;;;;;;7389937;19;20142;-77
2022/04/16 10:53:01;;;;;;;4.10;3.23;;;14.00;99.90;;;;;;7391361;19;20138;-79
2022/04/16 10:55:31;;;;;;;3.87;3.20;;;14.10;99.90;;;;;;7391062;19;20243;-78
2022/04/16 10:58:06;;;;;;;4.88;3.35;;;14.10;99.90;;;;;;7390890;19;20158;-79
2022/04/16 11:00:41;;;;;;;3.43;2.73;;;14.10;99.90;;;;;;7390797;19;20479;-77
2022/04/16 11:03:17;;;;;;;3.70;2.80;;;14.10;99.90;;;;;;7389980;19;21079;-79
2022/04/16 11:05:43;;;;;;;3.73;2.90;;;14.10;99.90;;;;;;7392075;19;20149;-78
2022/04/16 11:08:14;;;;;;;3.57;2.83;;;14.10;99.90;;;;;;7394354;19;20145;-78
2022/04/16 11:10:41;;;;;;;4.60;2.60;;;14.30;99.90;;;;;;7397648;19;20218;-77
2022/04/16 11:13:09;;;;;;;3.37;2.50;;;14.40;99.90;;;;;;7391401;19;20501;-79
2022/04/16 11:15:35;;;;;;;3.57;2.80;;;14.40;99.90;;;;;;7388674;19;20170;-77
2022/04/16 11:18:03;;;;;;;3.10;1.90;;;14.50;99.90;;;;;;7388532;19;20205;-78
2022/04/16 11:20:30;;;;;;;3.90;2.20;;;14.60;99.90;;;;;;7389467;19;20135;-78
2022/04/16 11:22:56;;;;;;;3.00;2.10;;;14.60;99.90;;;;;;7391214;19;20135;-77
2022/04/16 11:25:24;;;;;;;2.53;2.08;;;14.50;99.90;;;;;;7392901;19;20159;-79
2022/04/16 11:36:07;;;;;;;3.90;3.10;;;14.70;99.90;;;;;;7391192;19;20176;-79
2022/04/16 11:38:49;;;;;;;3.37;2.47;;;14.70;99.90;;;;;;7387928;19;20214;-77
2022/04/16 11:41:21;;;;;;;3.00;2.40;;;14.50;99.90;;;;;;7391336;19;20829;-80
2022/04/16 11:43:55;;;;;;;4.20;2.45;;;14.50;99.20;;;;;;7389217;19;20505;-77
2022/04/16 11:46:22;;;;;;;4.67;2.73;;;14.60;99.30;;;;;;7392980;19;20913;-78
2022/04/16 11:48:49;;;;;;;4.33;2.80;;;14.60;99.40;;;;;;7393745;19;20142;-76
2022/04/16 11:51:18;;;;;;;4.57;3.00;;;14.70;99.80;;;;;;7391443;19;20146;-78
2022/04/16 11:53:45;;;;;;;3.63;2.63;;;14.80;99.90;;;;;;7401159;19;20131;-76
2022/04/16 11:56:12;;;;;;;3.50;2.70;;;14.90;99.60;;;;;;7391828;19;20130;-82
2022/04/16 11:58:49;;;;;;;4.25;2.63;;;14.80;99.50;;;;;;7391881;19;20172;-81
2022/04/16 12:01:30;;;;;;;3.42;2.40;;;14.80;99.20;;;;;;7391263;19;20213;-79
2022/04/16 12:04:08;;;;;;;3.78;3.03;;;14.70;98.90;;;;;;7391024;19;20142;-78
2022/04/16 12:06:46;;;;;;;3.20;2.28;;;14.60;98.70;;;;;;7392948;19;20159;-80
2022/04/16 12:09:12;;;;;;;3.70;2.80;;;14.70;98.70;;;;;;7393102;19;20137;-80
2022/04/16 12:11:40;;;;;;;3.50;2.40;;;14.90;98.70;;;;;;7395679;19;20201;-78
2022/04/16 12:14:17;;;;;;;2.38;1.92;;;15.10;97.70;;;;;;7395066;19;20752;-77
2022/04/16 12:16:43;;;;;;;3.63;2.50;;;15.10;97.60;;;;;;7397281;19;20130;-77
2022/04/16 12:19:10;;;;;;;2.90;2.30;;;15.10;97.90;;;;;;7387963;19;20177;-78
2022/04/16 12:21:42;;;;;;;4.13;2.78;;;15.10;97.50;;;;;;7389260;19;20150;-80
2022/04/16 12:24:09;;;;;;;4.28;2.90;;;15.20;97.60;;;;;;7390247;19;20142;-79
2022/04/16 12:26:35;;;;;;;3.15;2.25;;;15.30;96.90;;;;;;7388420;19;20134;-78
2022/04/16 12:29:08;;;;;;;3.58;2.78;;;15.50;96.60;;;;;;7388055;19;20154;-77
2022/04/16 12:31:34;;;;;;;3.10;2.13;;;15.70;96.60;;;;;;7387681;19;20167;-79
2022/04/16 12:34:03;;;;;;;3.90;2.38;;;15.80;95.90;;;;;;7384462;19;20606;-76
2022/04/16 12:36:29;;;;;;;3.38;2.40;;;15.70;95.70;;;;;;7388817;19;20234;-78
2022/04/16 12:38:55;;;;;;;3.35;2.30;;;15.70;95.80;;;;;;7390059;19;20146;-78
2022/04/16 12:41:20;;;;;;;3.78;2.38;;;15.80;95.60;;;;;;7393279;19;20150;-78
2022/04/16 12:43:48;;;;;;;3.13;2.38;;;15.80;95.60;;;;;;7393437;19;20168;-77
2022/04/16 12:46:17;;;;;;;3.33;2.40;;;16.00;95.70;;;;;;7394314;19;20141;-78
2022/04/16 12:48:44;;;;;;;4.40;2.35;;;16.20;95.20;;;;;;7393319;19;20138;-77
2022/04/16 12:51:13;;;;;;;3.92;2.80;;;16.30;94.50;;;;;;7393863;19;20144;-77
2022/04/16 12:53:39;;;;;;;2.53;2.00;;;16.00;94.00;;;;;;7393844;19;20131;-76
2022/04/16 12:56:04;;;;;;;3.03;1.80;;;15.90;93.70;;;;;;7396214;19;20141;-76
2022/04/16 12:58:30;;;;;;;2.75;2.30;;;15.80;93.60;;;;;;7397124;19;20152;-77
2022/04/16 13:00:56;;;;;;;3.78;2.33;;;15.90;94.20;;;;;;7398518;19;20156;-79
2022/04/16 13:03:22;;;;;;;2.83;2.50;;;16.10;93.90;;;;;;7395323;19;20127;-77
2022/04/16 13:05:48;;;;;;;3.88;2.45;;;16.20;93.70;;;;;;7393151;19;20142;-78
2022/04/16 13:08:16;;;;;;;3.47;2.63;;;16.10;93.20;;;;;;7392405;19;20133;-78
2022/04/16 13:10:42;;;;;;;3.67;2.80;;;16.40;93.30;;;;;;7395250;19;20622;-79
2022/04/16 13:13:11;;;;;;;3.70;2.67;;;16.00;93.40;;;;;;7393058;19;20134;-77
2022/04/16 13:15:37;;;;;;;3.03;1.92;;;16.20;93.60;;;;;;7391908;19;20154;-79